Canadian Enterprise — VCJM — position and weather

sailwx.info

Track history (hours):
 
Tides and Currents Weather Stations Pressure Air Temp Water Temp Dewpoint Dewpoint Depression Visibility Wind Speed Wind Dir Waves Ship Positions

Canadian Enterprise

Last reported at 2017-Nov-17 12:00 UTC. Time now 2017-Nov-17 17:41 UTC.
Position N 46°42' W 087°18'.

Length 27 m; draft 4.2 m.

Type: Tug. MMSI: 314954697.

Wind from 170 at 23 knots

Barometer 1017.7 mb
Air temperature 0.2 ° C
Dewpoint -0.0 ° C

Date/timePositionNaut miles runAvg speedWind from/ knotsBaromVisibWave heightAir tempDewpointWater temp
2017-Nov-17 12:00N 46°42' W 087°18'1212.3 170 / 231017.7 0.2-0.0
2017-Nov-17 11:00N 46°42' W 087°00'1212.3 160 / 201019.6 -0.2-0.6
2017-Nov-17 10:00N 46°42' W 086°42'1212.3 150 / 171021.7 -1.5-2.0
2017-Nov-17 09:00N 46°42' W 086°24'1010.2 200 / 121023.2 -2.2-3.5
2017-Nov-17 08:00N 46°48' W 086°12'1212.3 160 / 121023.8 -3.4-4.7
2017-Nov-17 07:00N 46°48' W 085°54'1212.3 130 / 161023.9 -3.3-4.8
2017-Nov-17 06:00N 46°48' W 085°36'1212.3 130 / 141024.8 -3.2-5.2
2017-Nov-17 05:00N 46°48' W 085°18'1212.3 110 / 121025.5 -3.4-5.4
2017-Nov-17 04:00N 46°48' W 085°00'1010.2 090 / 81026.2 -3.7-6.0
2017-Nov-17 03:00N 46°42' W 084°48'1514.6 080 / 111025.8 -4.0-6.4
2017-Nov-17 02:00N 46°30' W 084°36'8 8.3 090 / 111025.3 -4.4-6.7
2017-Nov-17 01:00N 46°30' W 084°24'4 4.1 070 / 131025.7 -4.0-7.6
2017-Nov-17 00:00N 46°30' W 084°18'0 0.0 050 / 41025.2 -2.6-6.8
2017-Nov-16 23:00N 46°30' W 084°18'1312.7 030 / 121023.7 -3.2-7.1
2017-Nov-16 22:00N 46°18' W 084°12'7 7.3 010 / 111022.6 -2.1-6.9
2017-Nov-16 21:00N 46°12' W 084°06'7 7.3 020 / 121020.7 -1.1-6.2
2017-Nov-16 20:00N 46°06' W 084°00'1312.7 360 / 211019.3 -0.6-5.6
2017-Nov-16 19:00N 45°54' W 083°54'8 8.4 360 / 231017.1 -0.1-5.3
2017-Nov-16 18:00N 45°54' W 084°06'1413.9 340 / 241017.3 -0.4-3.7
2017-Nov-16 17:00N 45°48' W 084°24'316.2 340 / 241017.4 -0.4-3.2
2017-Nov-16 16:50N 45°51' W 084°24'412.1
2017-Nov-16 16:30N 45°51' W 084°30'611.0
2017-Nov-16 16:00N 45°50' W 084°38'510.7
2017-Nov-16 15:30N 45°49' W 084°45'612.8
2017-Nov-16 15:00N 45°50' W 084°54'612.4
2017-Nov-16 14:30N 45°51' W 085°03'612.5
2017-Nov-16 14:00N 45°52' W 085°12'612.5
2017-Nov-16 13:30N 45°53' W 085°21'612.5
2017-Nov-16 13:00N 45°53' W 085°30'712.9
2017-Nov-16 12:30N 45°53' W 085°39'612.3
2017-Nov-16 12:00N 45°54' W 085°48'1312.5 340 / 231013.6 -0.0-0.2
2017-Nov-16 11:00N 45°54' W 086°06'6210.3 340 / 241012.6 0.2-0.1
2017-Nov-16 05:00N 45°18' W 087°18'2713.6 300 / 211008.4 3.1 1.7
2017-Nov-16 03:00N 44°54' W 087°36'1010.4 280 / 231008.1 3.1 2.1
2017-Nov-16 02:00N 44°48' W 087°48'1312.7 280 / 221008.2 3.1 1.8
2017-Nov-16 01:00N 44°36' W 087°54'7 7.4 290 / 221008.1 3.6 2.5
2017-Nov-16 00:00N 44°30' W 088°00'0 0.0 280 / 141007.4 5.2 4.9
2017-Nov-15 23:00N 44°30' W 088°00'0 0.0 280 / 131005.9 6.5 6.2
2017-Nov-15 22:00N 44°30' W 088°00'0 0.0 290 / 151005.4 6.6 6.4
2017-Nov-15 21:00N 44°30' W 088°00'0 0.0 280 / 111004.7 7.5 7.4
2017-Nov-15 20:00N 44°30' W 088°00'0 0.0 280 / 91004.1 8.4 8.2
2017-Nov-15 19:00N 44°30' W 088°00'0 0.0 280 / 81003.9 8.9 8.8
2017-Nov-15 18:00N 44°30' W 088°00'0 0.0 260 / 61004.3 9.0 8.9
2017-Nov-15 17:00N 44°30' W 088°00'0 0.0 230 / 41005.5 7.2 7.2
2017-Nov-15 16:00N 44°30' W 088°00'7 7.4 220 / 81006.0 6.4 6.4
2017-Nov-15 15:00N 44°36' W 087°54'0 0.0 210 / 121006.2 6.1 6.1
2017-Nov-15 14:00N 44°36' W 087°54'1312.7 200 / 121007.1 5.8 5.8
2017-Nov-15 13:00N 44°48' W 087°48'1010.4 180 / 71007.7 6.4 6.3
2017-Nov-15 12:00N 44°54' W 087°36'7 7.4 180 / 101007.9 6.8 6.6
2017-Nov-15 11:00N 45°00' W 087°30'1312.7 180 / 161008.3 7.2 7.0
2017-Nov-15 10:00N 45°12' W 087°24'1010.4 180 / 181009.3 7.1 7.0
2017-Nov-15 09:00N 45°18' W 087°12'1414.0 190 / 171010.0 7.0 7.0
2017-Nov-15 08:00N 45°24' W 086°54'28 7.0 190 / 221011.4 7.3 7.2
2017-Nov-15 04:00N 45°36' W 086°18'20 6.9 190 / 251014.6 7.5 7.4
2017-Nov-15 01:08N 45°47' W 085°55'1 8.4
2017-Nov-15 01:00N 45°48' W 085°54'1604.3 190 / 241016.0 7.9 7.6
2017-Nov-15 00:59N 45°47' W 085°53'5 9.7
2017-Nov-15 00:30N 45°49' W 085°47'610.6
2017-Nov-14 23:54N 45°52' W 085°38'410.6
2017-Nov-14 23:29N 45°53' W 085°32'511.4
2017-Nov-14 23:00N 45°53' W 085°25'1108.9
2017-Nov-14 23:00N 45°54' W 085°24'711.0 190 / 211018.2 7.9 6.5
2017-Nov-14 22:19N 45°52' W 085°14'311.3
2017-Nov-14 22:00N 45°52' W 085°09'3175.6
2017-Nov-14 22:00N 45°54' W 085°06'510.1 150 / 161019.9 6.2 5.6
2017-Nov-14 21:30N 45°51' W 085°00'611.4
2017-Nov-14 21:00N 45°50' W 084°52'2161.3
2017-Nov-14 21:00N 45°48' W 084°54'714.1 150 / 13999.2 5.6 4.7
2017-Nov-14 20:30N 45°49' W 084°44'611.4
2017-Nov-14 20:00N 45°48' W 084°36'31543.6 160 / 141021.4 5.7 4.4
2017-Nov-14 19:59N 45°50' W 084°38'4 8.7
2017-Nov-14 19:30N 45°51' W 084°32'612.3
2017-Nov-14 19:00N 45°54' W 084°24'326.4 190 / 111022.6 5.4 4.2
2017-Nov-14 18:53N 45°52' W 084°22'511.7
2017-Nov-14 18:29N 45°51' W 084°16'714.5
2017-Nov-14 18:00N 45°48' W 084°06'1312.5 200 / 151023.3 4.7 4.4
2017-Nov-14 17:00N 45°48' W 083°48'8 9.0 200 / 131024.2 5.3 4.7
2017-Nov-14 16:08N 45°48' W 083°37'1 4.4
2017-Nov-14 16:00N 45°48' W 083°36'1312.5 200 / 141025.4 5.1 2.5
2017-Nov-14 15:00N 45°48' W 083°18'7 7.3 210 / 141025.8 5.4 3.0
2017-Nov-14 14:00N 45°54' W 083°12'0 0.0 200 / 71027.0 5.4 1.4
2017-Nov-14 13:00N 45°54' W 083°12'0 0.0 120 / 51027.0 3.1 2.3
2017-Nov-14 12:00N 45°54' W 083°12'0 0.0 120 / 51027.2 2.9 2.6
2017-Nov-14 11:00N 45°54' W 083°12'0 0.0 100 / 71027.4 2.7 2.0
2017-Nov-14 10:00N 45°54' W 083°12'0 0.0 100 / 61027.5 2.9 2.2
2017-Nov-14 09:00N 45°54' W 083°12'0 0.0 090 / 51027.5 2.6 2.4
2017-Nov-14 08:00N 45°54' W 083°12'0 0.0 120 / 31027.9 2.8 2.6
2017-Nov-14 07:00N 45°54' W 083°12'0 0.0 120 / 61027.9 2.6 2.3
2017-Nov-14 06:00N 45°54' W 083°12'0 0.0 130 / 41028.1 2.8 1.3
2017-Nov-14 05:00N 45°54' W 083°12'0 0.0 130 / 41028.4 2.5 2.3
2017-Nov-14 04:00N 45°54' W 083°12'0 0.0 130 / 51028.5 2.5 1.5
2017-Nov-14 03:00N 45°54' W 083°12'0 0.0 110 / 41028.7 2.6 0.9
2017-Nov-14 02:00N 45°54' W 083°12'0 0.0 080 / 31028.7 2.2 1.9
2017-Nov-14 01:00N 45°54' W 083°12'0 0.0 080 / 71028.7 2.0 1.8
2017-Nov-14 00:00N 45°54' W 083°12'0 0.0 030 / 11029.0 3.3 1.7
2017-Nov-13 23:00N 45°54' W 083°12'7 7.3 290 / 51028.9 3.7 2.4
2017-Nov-13 22:00N 45°48' W 083°18'1312.7 360 / 41028.8 3.6 0.8
2017-Nov-13 21:00N 45°36' W 083°24'7 7.3 100 / 21029.1 2.8 2.6
2017-Nov-13 20:00N 45°30' W 083°18'1010.3 330 / 41028.6 4.1 2.1
2017-Nov-13 19:00N 45°24' W 083°06'1312.6 020 / 71028.9 2.3 2.2
2017-Nov-13 18:00N 45°24' W 082°48'1312.7 300 / 71028.5 3.3 3.1
2017-Nov-13 17:00N 45°12' W 082°42'4 4.2 010 / 61029.4 4.3 3.3
2017-Nov-13 16:00N 45°12' W 082°36'1312.7 340 / 71029.1 4.1 3.2
2017-Nov-13 15:00N 45°00' W 082°30'1312.7 360 / 101028.1 3.3 3.1
2017-Nov-13 14:00N 44°48' W 082°24'1312.7 320 / 151027.9 4.4 3.1
2017-Nov-13 13:00N 44°36' W 082°18'6 6.0 320 / 71027.3 3.2 2.8
2017-Nov-13 12:00N 44°30' W 082°18'1212.0 310 / 121027.3 4.7 2.2
2017-Nov-13 11:00N 44°18' W 082°18'1312.7 330 / 121027.0 4.7 2.9
2017-Nov-13 10:00N 44°06' W 082°12'1212.0 330 / 111027.1 4.8 2.8
2017-Nov-13 09:00N 43°54' W 082°12'1312.8 340 / 111027.0 5.2 1.6
2017-Nov-13 08:00N 43°42' W 082°06'1312.8 300 / 91027.0 4.9 2.8
2017-Nov-13 07:00N 43°30' W 082°12'1312.8 320 / 61027.2 4.2 3.1
2017-Nov-13 06:00N 43°18' W 082°18'1312.8 320 / 71027.3 3.4 3.2
2017-Nov-13 05:00N 43°06' W 082°24'1212.0 330 / 81027.5 2.3 2.2
2017-Nov-13 04:00N 42°54' W 082°24'4 4.4 300 / 41028.1 1.3 1.3
2017-Nov-13 03:00N 42°54' W 082°30'1212.0 350 / 41028.0 1.6 1.5
2017-Nov-13 02:00N 42°42' W 082°30'6 6.0 060 / 6 1.3 1.2
2017-Nov-13 01:00N 42°36' W 082°30'1110.7 030 / 71026.9 2.0 1.9
2017-Nov-13 00:00N 42°30' W 082°42'7 7.5 360 / 81026.7 3.3 3.1
2017-Nov-12 23:00N 42°24' W 082°48'15 7.3 350 / 51026.5 3.1 3.0
2017-Nov-12 21:00N 42°18' W 083°06'0 0.0 3.7 3.5
2017-Nov-12 20:00N 42°18' W 083°06'0 0.0 120 / 1 3.8 3.2
2017-Nov-12 19:00N 42°18' W 083°06'0 0.0 200 / 2 4.0 1.0
2017-Nov-12 18:00N 42°18' W 083°06'0 0.0 190 / 3 4.0-1.3
2017-Nov-12 17:00N 42°18' W 083°06'0 0.0 210 / 2 4.1-1.6
2017-Nov-12 16:00N 42°18' W 083°06'0 0.0 200 / 2 3.6-2.5
2017-Nov-12 15:00N 42°18' W 083°06'0 0.0 240 / 1 3.2-3.1
2017-Nov-12 14:00N 42°18' W 083°06'0 0.0 180 / 4 2.1-3.4
2017-Nov-12 13:00N 42°18' W 083°06'0 0.0 210 / 1 2.0-3.7
2017-Nov-12 12:00N 42°18' W 083°06'0 0.0 200 / 3 2.0-5.4
2017-Nov-12 11:00N 42°18' W 083°06'0 0.0 190 / 4 2.0-6.5
2017-Nov-12 10:00N 42°18' W 083°06'0 0.0 220 / 1 2.4-6.5
2017-Nov-12 09:00N 42°18' W 083°06'0 0.0 220 / 4 1.9-7.4
2017-Nov-12 08:00N 42°18' W 083°06'0 0.0 210 / 4 1.8-7.8
2017-Nov-12 07:00N 42°18' W 083°06'0 0.0 210 / 3 1.6-7.7
2017-Nov-12 06:00N 42°18' W 083°06'0 0.0 240 / 3 1.6-7.8
2017-Nov-12 05:00N 42°18' W 083°06'0 0.0 220 / 4 1.2-7.8
2017-Nov-12 04:00N 42°18' W 083°06'0 0.0 210 / 1 1.8-7.5
2017-Nov-12 03:00N 42°18' W 083°06'0 0.0 240 / 1 1.8-7.3
2017-Nov-12 02:00N 42°18' W 083°06'1110.7 260 / 3 1.1-6.1
2017-Nov-12 01:00N 42°24' W 082°54'7 7.5 210 / 71027.9 0.9-6.7
2017-Nov-12 00:00N 42°30' W 082°48'1110.7 190 / 101027.8 1.6-6.0
2017-Nov-11 23:00N 42°36' W 082°36'7 7.4 150 / 81028.6 1.2-6.7
2017-Nov-11 22:00N 42°42' W 082°30'1212.0 170 / 8 1.4-4.6
2017-Nov-11 21:00N 42°54' W 082°30'4 4.4 150 / 131028.7 1.6-4.7
2017-Nov-11 20:00N 42°54' W 082°24'1818.0 150 / 71029.6 0.5-3.8
2017-Nov-11 19:00N 43°12' W 082°24'1212.0 160 / 141029.9 0.2-3.5
2017-Nov-11 18:00N 43°24' W 082°24'6 6.0 170 / 181030.8 0.2-2.4
2017-Nov-11 17:00N 43°30' W 082°24'1212.0 170 / 171031.3 0.1-2.8
2017-Nov-11 16:00N 43°42' W 082°24'1212.0 160 / 171032.6 -0.2-5.4
2017-Nov-11 15:00N 43°54' W 082°24'1312.8 150 / 171032.9 -0.7-6.1
2017-Nov-11 14:00N 44°06' W 082°30'1312.7 180 / 151034.0 -0.9-4.7
2017-Nov-11 13:00N 44°18' W 082°36'1312.7 200 / 141034.2 -1.0-4.5
2017-Nov-11 12:00N 44°30' W 082°42'7 7.4 210 / 181034.2 -0.4-4.6
2017-Nov-11 11:00N 44°36' W 082°48'1312.7 170 / 141034.2 0.3-5.8
2017-Nov-11 10:00N 44°48' W 082°54'1212.0 190 / 61035.1 -1.0-6.9
2017-Nov-11 09:00N 45°00' W 082°54'1312.7 190 / 81035.0 -1.4-6.8
2017-Nov-11 08:00N 45°12' W 083°00'1312.7 200 / 71035.5 -2.0-7.3
2017-Nov-11 07:00N 45°24' W 083°06'1010.3 190 / 111035.0 -2.8-8.4
2017-Nov-11 06:00N 45°30' W 083°18'913.2 200 / 111035.6 -3.0-8.9
2017-Nov-11 05:19N 45°36' W 083°27'411.6
2017-Nov-11 05:00N 45°39' W 083°31'3236.3
2017-Nov-11 05:00N 45°36' W 083°30'817.2 210 / 91036.0 -2.8-8.0
2017-Nov-11 04:30N 45°43' W 083°36'612.2
2017-Nov-11 04:00N 45°48' W 083°42'1010.3 180 / 61036.5 -3.0-10.6
2017-Nov-11 03:00N 45°54' W 083°54'1312.7 320 / 41037.5 -4.6-10.9
2017-Nov-11 02:00N 46°06' W 084°00'7 7.3 260 / 51037.5 -5.3-10.1
2017-Nov-11 01:00N 46°12' W 084°06'7 7.3 240 / 71037.9 -5.3-10.2
2017-Nov-11 00:00N 46°18' W 084°12'7 7.3 240 / 61037.7 -6.3-10.4
2017-Nov-10 23:00N 46°24' W 084°18'6 6.0 240 / 51037.6 -6.0-11.3
2017-Nov-10 22:00N 46°30' W 084°18'4 4.1 290 / 31037.7 -5.0-11.7
2017-Nov-10 21:00N 46°30' W 084°24'0 0.0 280 / 81036.8 -4.9-11.9
2017-Nov-10 20:00N 46°30' W 084°24'0 0.0 300 / 51037.7 -4.7-12.8
2017-Nov-10 19:00N 46°30' W 084°24'0 0.0 010 / 31037.9 -4.6-13.9
2017-Nov-10 18:00N 46°30' W 084°24'0 0.0 330 / 71038.0 -5.5-13.5
2017-Nov-10 17:00N 46°30' W 084°24'0 0.0 340 / 81038.3 -6.0-14.0
2017-Nov-10 16:00N 46°30' W 084°24'0 0.0 350 / 61038.5 -7.0-15.8
2017-Nov-10 15:00N 46°30' W 084°24'0 0.0 030 / 11038.5 -8.2-13.0
2017-Nov-10 14:00N 46°30' W 084°24'0 0.0 350 / 31037.9 -10.5-14.6
2017-Nov-10 13:00N 46°30' W 084°24'0 0.0 350 / 31037.1 -13.1-16.4
2017-Nov-10 11:00N 46°30' W 084°24'0 0.0 040 / 41035.8 -15.4-17.9
2017-Nov-10 10:00N 46°30' W 084°24'0 0.0 040 / 61035.0 -15.2-18.4
2017-Nov-10 09:00N 46°30' W 084°24'0 0.0 040 / 51034.3 -15.1-18.1
2017-Nov-10 08:00N 46°30' W 084°24'0 0.0 030 / 61033.5 -15.2-19.0
2017-Nov-10 07:00N 46°30' W 084°24'0 0.0 010 / 101031.8 -15.1-19.6
2017-Nov-10 06:00N 46°30' W 084°24'0 0.0 010 / 141030.3 -14.5-19.7
2017-Nov-10 05:00N 46°30' W 084°24'0 0.0 020 / 121028.9 -13.9-18.9
2017-Nov-10 04:00N 46°30' W 084°24'0 0.0 040 / 61027.4 -12.5-17.3
2017-Nov-10 03:00N 46°30' W 084°24'0 0.0 010 / 121026.0 -11.9-17.1
2017-Nov-10 02:00N 46°30' W 084°24'0 0.0 360 / 161024.1 -10.4-15.0
2017-Nov-10 01:00N 46°30' W 084°24'0 0.0 360 / 151022.6 -9.1-13.2
2017-Nov-10 00:00N 46°30' W 084°24'0 0.0 340 / 211021.6 -7.9-13.7
2017-Nov-09 23:00N 46°30' W 084°24'0 0.0 330 / 211020.0 -7.5-12.8
2017-Nov-09 22:00N 46°30' W 084°24'0 0.0 330 / 211018.6 -6.8-11.8
2017-Nov-09 21:00N 46°30' W 084°24'0 0.0 320 / 181016.8 -5.9-8.9
2017-Nov-09 20:00N 46°30' W 084°24'0 0.0 330 / 161014.7 -5.0-5.8
2017-Nov-09 19:00N 46°30' W 084°24'0 0.0 300 / 171013.1 -4.1-4.5
2017-Nov-09 18:00N 46°30' W 084°24'0 0.0 310 / 191012.5 -3.9-4.1
2017-Nov-09 17:00N 46°30' W 084°24'0 0.0 320 / 101011.6 -2.1-2.6
2017-Nov-09 16:00N 46°30' W 084°24'0 0.0 330 / 121011.7 -2.0-3.2
2017-Nov-09 15:00N 46°30' W 084°24'0 0.0 340 / 161011.1 -1.9-2.0
2017-Nov-09 14:00N 46°30' W 084°24'0 0.0 200 / 111011.0 -1.2-1.3
2017-Nov-09 13:00N 46°30' W 084°24'0 0.0 190 / 101011.7 -1.4-1.5
2017-Nov-09 12:00N 46°30' W 084°24'0 0.0 200 / 91012.6 -1.6-1.7
2017-Nov-09 11:00N 46°30' W 084°24'0 0.0 180 / 61013.4 -1.1-1.3
2017-Nov-09 10:00N 46°30' W 084°24'0 0.0 210 / 91013.8 -0.3-1.3
2017-Nov-09 09:00N 46°30' W 084°24'0 0.0 250 / 151014.6 0.2-2.4
2017-Nov-09 08:00N 46°30' W 084°24'0 0.0 260 / 171015.3 1.2-4.4
2017-Nov-09 07:00N 46°30' W 084°24'0 0.0 230 / 111016.1 1.0-3.7
2017-Nov-09 06:00N 46°30' W 084°24'0 0.0 240 / 151016.5 1.7-4.5
2017-Nov-09 05:00N 46°30' W 084°24'0 0.0 280 / 111017.2 1.9-4.8
2017-Nov-09 04:00N 46°30' W 084°24'0 0.0 260 / 171018.2 1.5-5.0
2017-Nov-09 03:00N 46°30' W 084°24'0 0.0 230 / 141018.5 0.7-4.8
2017-Nov-09 01:00N 46°30' W 084°24'0 0.0 250 / 151019.3 1.0-4.1 6.1
2017-Nov-09 00:00N 46°30' W 084°24'0 0.0 260 / 151019.2 1.5-4.2 5.5
2017-Nov-08 23:00N 46°30' W 084°24'0 0.0 250 / 161019.1 1.9-4.8 5.4
2017-Nov-08 22:00N 46°30' W 084°24'4 4.1 250 / 81019.2 2.0-6.0 5.0
2017-Nov-08 21:00N 46°30' W 084°18'7 7.3 270 / 101019.2 2.6-5.7 4.7
2017-Nov-08 20:00N 46°24' W 084°12'7 7.3 280 / 121019.1 3.1-6.2 5.6
2017-Nov-08 19:00N 46°18' W 084°06'6 6.0 250 / 111019.5 3.3-5.0 5.8
2017-Nov-08 18:00N 46°12' W 084°06'1010.3 270 / 171019.0 3.2-3.9 6.2
2017-Nov-08 17:00N 46°06' W 083°54'1312.7 280 / 161020.1 2.9-2.4 4.8
2017-Nov-08 16:00N 45°54' W 083°48'7 7.3 260 / 211020.4 3.4-1.4 8.0
2017-Nov-08 15:00N 45°48' W 083°42'4 4.2 260 / 201021.1 3.1-1.7 6.7
2017-Nov-08 14:00N 45°48' W 083°36'4 4.2 240 / 161022.0 3.1-1.5 6.3
2017-Nov-08 13:00N 45°48' W 083°42'8 8.4 240 / 141022.0 3.6-1.0 6.6
2017-Nov-08 12:00N 45°48' W 083°54'1312.5 250 / 161022.2 5.6-2.6 7.4
2017-Nov-08 11:00N 45°48' W 084°12'710.8 260 / 151022.4 3.0-4.9 6.8
2017-Nov-08 10:23N 45°51' W 084°21'512.2
2017-Nov-08 10:00N 45°51' W 084°27'3203.9
2017-Nov-08 10:00N 45°48' W 084°30'5 9.9 280 / 151022.7 1.5-4.9 7.5
2017-Nov-08 09:30N 45°51' W 084°36'511.0
2017-Nov-08 09:00N 45°49' W 084°43'195.1
2017-Nov-08 09:00N 45°48' W 084°42'715.4 270 / 201023.1 3.0-5.2 6.3
2017-Nov-08 08:31N 45°50' W 084°52'612.3
2017-Nov-08 08:00N 45°51' W 085°01'3168.9
2017-Nov-08 08:00N 45°48' W 085°00'815.6 270 / 181023.6 3.0-5.1 5.9
2017-Nov-08 07:31N 45°51' W 085°10'612.1
2017-Nov-08 07:00N 45°52' W 085°18'2127.6
2017-Nov-08 07:00N 45°54' W 085°18'613.3 280 / 211024.0 1.3-7.4 7.1
2017-Nov-08 06:30N 45°53' W 085°27'611.7
2017-Nov-08 06:00N 45°53' W 085°36'179.2
2017-Nov-08 06:00N 45°54' W 085°36'613.3 280 / 211024.1 2.0-7.1 7.1
2017-Nov-08 05:30N 45°50' W 085°43'612.1
2017-Nov-08 05:00N 45°47' W 085°51'2145.0
2017-Nov-08 05:00N 45°48' W 085°48'817.0 270 / 171024.1 2.3-5.8 7.0
2017-Nov-08 04:30N 45°44' W 085°58'2 4.5
2017-Nov-08 04:00N 45°42' W 086°00'1312.7 250 / 131024.6 3.2-5.410.4
2017-Nov-08 03:00N 45°30' W 086°06'6 6.0 250 / 141025.4 2.9-6.1 8.7
2017-Nov-08 02:00N 45°24' W 086°06'1312.7 260 / 111026.0 2.4-6.5 8.4
2017-Nov-08 01:00N 45°12' W 086°12'6 6.0 270 / 101026.3 2.1-6.4 8.2
2017-Nov-08 00:00N 45°06' W 086°12'1312.7 280 / 91026.6 2.1-5.5 9.0
2017-Nov-07 23:00N 44°54' W 086°18'6 6.0 300 / 81026.6 2.1-5.7 9.2
2017-Nov-07 22:00N 44°48' W 086°18'7 7.4 300 / 91026.6 2.2-4.9 8.5
2017-Nov-07 21:00N 44°42' W 086°24'1212.0 310 / 111026.6 2.6-4.2 9.9
2017-Nov-07 20:00N 44°30' W 086°24'7 7.4 330 / 111026.6 2.9-3.8 8.7
2017-Nov-07 19:00N 44°24' W 086°30'6 6.0 340 / 111026.5 3.2-1.710.0
2017-Nov-07 18:00N 44°18' W 086°30'1312.7 350 / 111026.9 3.8-1.3 8.3
2017-Nov-07 17:00N 44°06' W 086°36'1312.8 350 / 121027.4 4.1-1.3 8.3
2017-Nov-07 16:00N 43°54' W 086°42'1312.8 360 / 111027.7 4.7-1.4 8.1
2017-Nov-07 15:00N 43°42' W 086°48'1212.0 010 / 121027.2 5.3-1.8 8.2
2017-Nov-07 14:00N 43°30' W 086°48'1212.0 360 / 141026.9 5.2-1.4 8.2
2017-Nov-07 13:00N 43°18' W 086°48'1212.0 010 / 141026.3 5.8 0.3 8.9
2017-Nov-07 12:00N 43°06' W 086°48'   050 / 101026.4 5.7 1.2 9.0
Track history (hours):
 
Tides and Currents Weather Stations Pressure Air Temp Water Temp Dewpoint Dewpoint Depression Visibility Wind Speed Wind Dir Waves Ship Positions

Canadian Enterprise

Last reported at 2017-Nov-17 12:00 UTC. Time now 2017-Nov-17 17:41 UTC.
Position N 46°42' W 087°18'.

Length 27 m; draft 4.2 m.

Type: Tug. MMSI: 314954697.

Wind from 170 at 23 knots

Barometer 1017.7 mb
Air temperature 0.2 ° C
Dewpoint -0.0 ° C

Date/timePositionNaut miles runAvg speedWind from/ knotsBaromVisibWave heightAir tempDewpointWater temp
2017-Nov-17 12:00N 46°42' W 087°18'1212.3 170 / 231017.7 0.2-0.0
2017-Nov-17 11:00N 46°42' W 087°00'1212.3 160 / 201019.6 -0.2-0.6
2017-Nov-17 10:00N 46°42' W 086°42'1212.3 150 / 171021.7 -1.5-2.0
2017-Nov-17 09:00N 46°42' W 086°24'1010.2 200 / 121023.2 -2.2-3.5
2017-Nov-17 08:00N 46°48' W 086°12'1212.3 160 / 121023.8 -3.4-4.7
2017-Nov-17 07:00N 46°48' W 085°54'1212.3 130 / 161023.9 -3.3-4.8
2017-Nov-17 06:00N 46°48' W 085°36'1212.3 130 / 141024.8 -3.2-5.2
2017-Nov-17 05:00N 46°48' W 085°18'1212.3 110 / 121025.5 -3.4-5.4
2017-Nov-17 04:00N 46°48' W 085°00'1010.2 090 / 81026.2 -3.7-6.0
2017-Nov-17 03:00N 46°42' W 084°48'1514.6 080 / 111025.8 -4.0-6.4
2017-Nov-17 02:00N 46°30' W 084°36'8 8.3 090 / 111025.3 -4.4-6.7
2017-Nov-17 01:00N 46°30' W 084°24'4 4.1 070 / 131025.7 -4.0-7.6
2017-Nov-17 00:00N 46°30' W 084°18'0 0.0 050 / 41025.2 -2.6-6.8
2017-Nov-16 23:00N 46°30' W 084°18'1312.7 030 / 121023.7 -3.2-7.1
2017-Nov-16 22:00N 46°18' W 084°12'7 7.3 010 / 111022.6 -2.1-6.9
2017-Nov-16 21:00N 46°12' W 084°06'7 7.3 020 / 121020.7 -1.1-6.2
2017-Nov-16 20:00N 46°06' W 084°00'1312.7 360 / 211019.3 -0.6-5.6
2017-Nov-16 19:00N 45°54' W 083°54'8 8.4 360 / 231017.1 -0.1-5.3
2017-Nov-16 18:00N 45°54' W 084°06'1413.9 340 / 241017.3 -0.4-3.7
2017-Nov-16 17:00N 45°48' W 084°24'316.2 340 / 241017.4 -0.4-3.2
2017-Nov-16 16:50N 45°51' W 084°24'412.1
2017-Nov-16 16:30N 45°51' W 084°30'611.0
2017-Nov-16 16:00N 45°50' W 084°38'510.7
2017-Nov-16 15:30N 45°49' W 084°45'612.8
2017-Nov-16 15:00N 45°50' W 084°54'612.4
2017-Nov-16 14:30N 45°51' W 085°03'612.5
2017-Nov-16 14:00N 45°52' W 085°12'612.5
2017-Nov-16 13:30N 45°53' W 085°21'612.5
2017-Nov-16 13:00N 45°53' W 085°30'712.9
2017-Nov-16 12:30N 45°53' W 085°39'612.3
2017-Nov-16 12:00N 45°54' W 085°48'1312.5 340 / 231013.6 -0.0-0.2
2017-Nov-16 11:00N 45°54' W 086°06'6210.3 340 / 241012.6 0.2-0.1
2017-Nov-16 05:00N 45°18' W 087°18'2713.6 300 / 211008.4 3.1 1.7
2017-Nov-16 03:00N 44°54' W 087°36'1010.4 280 / 231008.1 3.1 2.1
2017-Nov-16 02:00N 44°48' W 087°48'1312.7 280 / 221008.2 3.1 1.8
2017-Nov-16 01:00N 44°36' W 087°54'7 7.4 290 / 221008.1 3.6 2.5
2017-Nov-16 00:00N 44°30' W 088°00'0 0.0 280 / 141007.4 5.2 4.9
2017-Nov-15 23:00N 44°30' W 088°00'0 0.0 280 / 131005.9 6.5 6.2
2017-Nov-15 22:00N 44°30' W 088°00'0 0.0 290 / 151005.4 6.6 6.4
2017-Nov-15 21:00N 44°30' W 088°00'0 0.0 280 / 111004.7 7.5 7.4
2017-Nov-15 20:00N 44°30' W 088°00'0 0.0 280 / 91004.1 8.4 8.2
2017-Nov-15 19:00N 44°30' W 088°00'0 0.0 280 / 81003.9 8.9 8.8
2017-Nov-15 18:00N 44°30' W 088°00'0 0.0 260 / 61004.3 9.0 8.9
2017-Nov-15 17:00N 44°30' W 088°00'0 0.0 230 / 41005.5 7.2 7.2
2017-Nov-15 16:00N 44°30' W 088°00'7 7.4 220 / 81006.0 6.4 6.4
2017-Nov-15 15:00N 44°36' W 087°54'0 0.0 210 / 121006.2 6.1 6.1
2017-Nov-15 14:00N 44°36' W 087°54'1312.7 200 / 121007.1 5.8 5.8
2017-Nov-15 13:00N 44°48' W 087°48'1010.4 180 / 71007.7 6.4 6.3
2017-Nov-15 12:00N 44°54' W 087°36'7 7.4 180 / 101007.9 6.8 6.6
2017-Nov-15 11:00N 45°00' W 087°30'1312.7 180 / 161008.3 7.2 7.0
2017-Nov-15 10:00N 45°12' W 087°24'1010.4 180 / 181009.3 7.1 7.0
2017-Nov-15 09:00N 45°18' W 087°12'1414.0 190 / 171010.0 7.0 7.0
2017-Nov-15 08:00N 45°24' W 086°54'28 7.0 190 / 221011.4 7.3 7.2
2017-Nov-15 04:00N 45°36' W 086°18'20 6.9 190 / 251014.6 7.5 7.4
2017-Nov-15 01:08N 45°47' W 085°55'1 8.4
2017-Nov-15 01:00N 45°48' W 085°54'1604.3 190 / 241016.0 7.9 7.6
2017-Nov-15 00:59N 45°47' W 085°53'5 9.7
2017-Nov-15 00:30N 45°49' W 085°47'610.6
2017-Nov-14 23:54N 45°52' W 085°38'410.6
2017-Nov-14 23:29N 45°53' W 085°32'511.4
2017-Nov-14 23:00N 45°53' W 085°25'1108.9
2017-Nov-14 23:00N 45°54' W 085°24'711.0 190 / 211018.2 7.9 6.5
2017-Nov-14 22:19N 45°52' W 085°14'311.3
2017-Nov-14 22:00N 45°52' W 085°09'3175.6
2017-Nov-14 22:00N 45°54' W 085°06'510.1 150 / 161019.9 6.2 5.6
2017-Nov-14 21:30N 45°51' W 085°00'611.4
2017-Nov-14 21:00N 45°50' W 084°52'2161.3
2017-Nov-14 21:00N 45°48' W 084°54'714.1 150 / 13999.2 5.6 4.7
2017-Nov-14 20:30N 45°49' W 084°44'611.4
2017-Nov-14 20:00N 45°48' W 084°36'31543.6 160 / 141021.4 5.7 4.4
2017-Nov-14 19:59N 45°50' W 084°38'4 8.7
2017-Nov-14 19:30N 45°51' W 084°32'612.3
2017-Nov-14 19:00N 45°54' W 084°24'326.4 190 / 111022.6 5.4 4.2
2017-Nov-14 18:53N 45°52' W 084°22'511.7
2017-Nov-14 18:29N 45°51' W 084°16'714.5
2017-Nov-14 18:00N 45°48' W 084°06'1312.5 200 / 151023.3 4.7 4.4
2017-Nov-14 17:00N 45°48' W 083°48'8 9.0 200 / 131024.2 5.3 4.7
2017-Nov-14 16:08N 45°48' W 083°37'1 4.4
2017-Nov-14 16:00N 45°48' W 083°36'1312.5 200 / 141025.4 5.1 2.5
2017-Nov-14 15:00N 45°48' W 083°18'7 7.3 210 / 141025.8 5.4 3.0
2017-Nov-14 14:00N 45°54' W 083°12'0 0.0 200 / 71027.0 5.4 1.4
2017-Nov-14 13:00N 45°54' W 083°12'0 0.0 120 / 51027.0 3.1 2.3
2017-Nov-14 12:00N 45°54' W 083°12'0 0.0 120 / 51027.2 2.9 2.6
2017-Nov-14 11:00N 45°54' W 083°12'0 0.0 100 / 71027.4 2.7 2.0
2017-Nov-14 10:00N 45°54' W 083°12'0 0.0 100 / 61027.5 2.9 2.2
2017-Nov-14 09:00N 45°54' W 083°12'0 0.0 090 / 51027.5 2.6 2.4
2017-Nov-14 08:00N 45°54' W 083°12'0 0.0 120 / 31027.9 2.8 2.6
2017-Nov-14 07:00N 45°54' W 083°12'0 0.0 120 / 61027.9 2.6 2.3
2017-Nov-14 06:00N 45°54' W 083°12'0 0.0 130 / 41028.1 2.8 1.3
2017-Nov-14 05:00N 45°54' W 083°12'0 0.0 130 / 41028.4 2.5 2.3
2017-Nov-14 04:00N 45°54' W 083°12'0 0.0 130 / 51028.5 2.5 1.5
2017-Nov-14 03:00N 45°54' W 083°12'0 0.0 110 / 41028.7 2.6 0.9
2017-Nov-14 02:00N 45°54' W 083°12'0 0.0 080 / 31028.7 2.2 1.9
2017-Nov-14 01:00N 45°54' W 083°12'0 0.0 080 / 71028.7 2.0 1.8
2017-Nov-14 00:00N 45°54' W 083°12'0 0.0 030 / 11029.0 3.3 1.7
2017-Nov-13 23:00N 45°54' W 083°12'7 7.3 290 / 51028.9 3.7 2.4
2017-Nov-13 22:00N 45°48' W 083°18'1312.7 360 / 41028.8 3.6 0.8
2017-Nov-13 21:00N 45°36' W 083°24'7 7.3 100 / 21029.1 2.8 2.6
2017-Nov-13 20:00N 45°30' W 083°18'1010.3 330 / 41028.6 4.1 2.1
2017-Nov-13 19:00N 45°24' W 083°06'1312.6 020 / 71028.9 2.3 2.2
2017-Nov-13 18:00N 45°24' W 082°48'1312.7 300 / 71028.5 3.3 3.1
2017-Nov-13 17:00N 45°12' W 082°42'4 4.2 010 / 61029.4 4.3 3.3
2017-Nov-13 16:00N 45°12' W 082°36'1312.7 340 / 71029.1 4.1 3.2
2017-Nov-13 15:00N 45°00' W 082°30'1312.7 360 / 101028.1 3.3 3.1
2017-Nov-13 14:00N 44°48' W 082°24'1312.7 320 / 151027.9 4.4 3.1
2017-Nov-13 13:00N 44°36' W 082°18'6 6.0 320 / 71027.3 3.2 2.8
2017-Nov-13 12:00N 44°30' W 082°18'1212.0 310 / 121027.3 4.7 2.2
2017-Nov-13 11:00N 44°18' W 082°18'1312.7 330 / 121027.0 4.7 2.9
2017-Nov-13 10:00N 44°06' W 082°12'1212.0 330 / 111027.1 4.8 2.8
2017-Nov-13 09:00N 43°54' W 082°12'1312.8 340 / 111027.0 5.2 1.6
2017-Nov-13 08:00N 43°42' W 082°06'1312.8 300 / 91027.0 4.9 2.8
2017-Nov-13 07:00N 43°30' W 082°12'1312.8 320 / 61027.2 4.2 3.1
2017-Nov-13 06:00N 43°18' W 082°18'1312.8 320 / 71027.3 3.4 3.2
2017-Nov-13 05:00N 43°06' W 082°24'1212.0 330 / 81027.5 2.3 2.2
2017-Nov-13 04:00N 42°54' W 082°24'4 4.4 300 / 41028.1 1.3 1.3
2017-Nov-13 03:00N 42°54' W 082°30'1212.0 350 / 41028.0 1.6 1.5
2017-Nov-13 02:00N 42°42' W 082°30'6 6.0 060 / 6 1.3 1.2
2017-Nov-13 01:00N 42°36' W 082°30'1110.7 030 / 71026.9 2.0 1.9
2017-Nov-13 00:00N 42°30' W 082°42'7 7.5 360 / 81026.7 3.3 3.1
2017-Nov-12 23:00N 42°24' W 082°48'15 7.3 350 / 51026.5 3.1 3.0
2017-Nov-12 21:00N 42°18' W 083°06'0 0.0 3.7 3.5
2017-Nov-12 20:00N 42°18' W 083°06'0 0.0 120 / 1 3.8 3.2
2017-Nov-12 19:00N 42°18' W 083°06'0 0.0 200 / 2 4.0 1.0
2017-Nov-12 18:00N 42°18' W 083°06'0 0.0 190 / 3 4.0-1.3
2017-Nov-12 17:00N 42°18' W 083°06'0 0.0 210 / 2 4.1-1.6
2017-Nov-12 16:00N 42°18' W 083°06'0 0.0 200 / 2 3.6-2.5
2017-Nov-12 15:00N 42°18' W 083°06'0 0.0 240 / 1 3.2-3.1
2017-Nov-12 14:00N 42°18' W 083°06'0 0.0 180 / 4 2.1-3.4
2017-Nov-12 13:00N 42°18' W 083°06'0 0.0 210 / 1 2.0-3.7
2017-Nov-12 12:00N 42°18' W 083°06'0 0.0 200 / 3 2.0-5.4
2017-Nov-12 11:00N 42°18' W 083°06'0 0.0 190 / 4 2.0-6.5
2017-Nov-12 10:00N 42°18' W 083°06'0 0.0 220 / 1 2.4-6.5
2017-Nov-12 09:00N 42°18' W 083°06'0 0.0 220 / 4 1.9-7.4
2017-Nov-12 08:00N 42°18' W 083°06'0 0.0 210 / 4 1.8-7.8
2017-Nov-12 07:00N 42°18' W 083°06'0 0.0 210 / 3 1.6-7.7
2017-Nov-12 06:00N 42°18' W 083°06'0 0.0 240 / 3 1.6-7.8
2017-Nov-12 05:00N 42°18' W 083°06'0 0.0 220 / 4 1.2-7.8
2017-Nov-12 04:00N 42°18' W 083°06'0 0.0 210 / 1 1.8-7.5
2017-Nov-12 03:00N 42°18' W 083°06'0 0.0 240 / 1 1.8-7.3
2017-Nov-12 02:00N 42°18' W 083°06'1110.7 260 / 3 1.1-6.1
2017-Nov-12 01:00N 42°24' W 082°54'7 7.5 210 / 71027.9 0.9-6.7
2017-Nov-12 00:00N 42°30' W 082°48'1110.7 190 / 101027.8 1.6-6.0
2017-Nov-11 23:00N 42°36' W 082°36'7 7.4 150 / 81028.6 1.2-6.7
2017-Nov-11 22:00N 42°42' W 082°30'1212.0 170 / 8 1.4-4.6
2017-Nov-11 21:00N 42°54' W 082°30'4 4.4 150 / 131028.7 1.6-4.7
2017-Nov-11 20:00N 42°54' W 082°24'1818.0 150 / 71029.6 0.5-3.8
2017-Nov-11 19:00N 43°12' W 082°24'1212.0 160 / 141029.9 0.2-3.5
2017-Nov-11 18:00N 43°24' W 082°24'6 6.0 170 / 181030.8 0.2-2.4
2017-Nov-11 17:00N 43°30' W 082°24'1212.0 170 / 171031.3 0.1-2.8
2017-Nov-11 16:00N 43°42' W 082°24'1212.0 160 / 171032.6 -0.2-5.4
2017-Nov-11 15:00N 43°54' W 082°24'1312.8 150 / 171032.9 -0.7-6.1
2017-Nov-11 14:00N 44°06' W 082°30'1312.7 180 / 151034.0 -0.9-4.7
2017-Nov-11 13:00N 44°18' W 082°36'1312.7 200 / 141034.2 -1.0-4.5
2017-Nov-11 12:00N 44°30' W 082°42'7 7.4 210 / 181034.2 -0.4-4.6
2017-Nov-11 11:00N 44°36' W 082°48'1312.7 170 / 141034.2 0.3-5.8
2017-Nov-11 10:00N 44°48' W 082°54'1212.0 190 / 61035.1 -1.0-6.9
2017-Nov-11 09:00N 45°00' W 082°54'1312.7 190 / 81035.0 -1.4-6.8
2017-Nov-11 08:00N 45°12' W 083°00'1312.7 200 / 71035.5 -2.0-7.3
2017-Nov-11 07:00N 45°24' W 083°06'1010.3 190 / 111035.0 -2.8-8.4
2017-Nov-11 06:00N 45°30' W 083°18'913.2 200 / 111035.6 -3.0-8.9
2017-Nov-11 05:19N 45°36' W 083°27'411.6
2017-Nov-11 05:00N 45°39' W 083°31'3236.3
2017-Nov-11 05:00N 45°36' W 083°30'817.2 210 / 91036.0 -2.8-8.0
2017-Nov-11 04:30N 45°43' W 083°36'612.2
2017-Nov-11 04:00N 45°48' W 083°42'1010.3 180 / 61036.5 -3.0-10.6
2017-Nov-11 03:00N 45°54' W 083°54'1312.7 320 / 41037.5 -4.6-10.9
2017-Nov-11 02:00N 46°06' W 084°00'7 7.3 260 / 51037.5 -5.3-10.1
2017-Nov-11 01:00N 46°12' W 084°06'7 7.3 240 / 71037.9 -5.3-10.2
2017-Nov-11 00:00N 46°18' W 084°12'7 7.3 240 / 61037.7 -6.3-10.4
2017-Nov-10 23:00N 46°24' W 084°18'6 6.0 240 / 51037.6 -6.0-11.3
2017-Nov-10 22:00N 46°30' W 084°18'4 4.1 290 / 31037.7 -5.0-11.7
2017-Nov-10 21:00N 46°30' W 084°24'0 0.0 280 / 81036.8 -4.9-11.9
2017-Nov-10 20:00N 46°30' W 084°24'0 0.0 300 / 51037.7 -4.7-12.8
2017-Nov-10 19:00N 46°30' W 084°24'0 0.0 010 / 31037.9 -4.6-13.9
2017-Nov-10 18:00N 46°30' W 084°24'0 0.0 330 / 71038.0 -5.5-13.5
2017-Nov-10 17:00N 46°30' W 084°24'0 0.0 340 / 81038.3 -6.0-14.0
2017-Nov-10 16:00N 46°30' W 084°24'0 0.0 350 / 61038.5 -7.0-15.8
2017-Nov-10 15:00N 46°30' W 084°24'0 0.0 030 / 11038.5 -8.2-13.0
2017-Nov-10 14:00N 46°30' W 084°24'0 0.0 350 / 31037.9 -10.5-14.6
2017-Nov-10 13:00N 46°30' W 084°24'0 0.0 350 / 31037.1 -13.1-16.4
2017-Nov-10 11:00N 46°30' W 084°24'0 0.0 040 / 41035.8 -15.4-17.9
2017-Nov-10 10:00N 46°30' W 084°24'0 0.0 040 / 61035.0 -15.2-18.4
2017-Nov-10 09:00N 46°30' W 084°24'0 0.0 040 / 51034.3 -15.1-18.1
2017-Nov-10 08:00N 46°30' W 084°24'0 0.0 030 / 61033.5 -15.2-19.0
2017-Nov-10 07:00N 46°30' W 084°24'0 0.0 010 / 101031.8 -15.1-19.6
2017-Nov-10 06:00N 46°30' W 084°24'0 0.0 010 / 141030.3 -14.5-19.7
2017-Nov-10 05:00N 46°30' W 084°24'0 0.0 020 / 121028.9 -13.9-18.9
2017-Nov-10 04:00N 46°30' W 084°24'0 0.0 040 / 61027.4 -12.5-17.3
2017-Nov-10 03:00N 46°30' W 084°24'0 0.0 010 / 121026.0 -11.9-17.1
2017-Nov-10 02:00N 46°30' W 084°24'0 0.0 360 / 161024.1 -10.4-15.0
2017-Nov-10 01:00N 46°30' W 084°24'0 0.0 360 / 151022.6 -9.1-13.2
2017-Nov-10 00:00N 46°30' W 084°24'0 0.0 340 / 211021.6 -7.9-13.7
2017-Nov-09 23:00N 46°30' W 084°24'0 0.0 330 / 211020.0 -7.5-12.8
2017-Nov-09 22:00N 46°30' W 084°24'0 0.0 330 / 211018.6 -6.8-11.8
2017-Nov-09 21:00N 46°30' W 084°24'0 0.0 320 / 181016.8 -5.9-8.9
2017-Nov-09 20:00N 46°30' W 084°24'0 0.0 330 / 161014.7 -5.0-5.8
2017-Nov-09 19:00N 46°30' W 084°24'0 0.0 300 / 171013.1 -4.1-4.5
2017-Nov-09 18:00N 46°30' W 084°24'0 0.0 310 / 191012.5 -3.9-4.1
2017-Nov-09 17:00N 46°30' W 084°24'0 0.0 320 / 101011.6 -2.1-2.6
2017-Nov-09 16:00N 46°30' W 084°24'0 0.0 330 / 121011.7 -2.0-3.2
2017-Nov-09 15:00N 46°30' W 084°24'0 0.0 340 / 161011.1 -1.9-2.0
2017-Nov-09 14:00N 46°30' W 084°24'0 0.0 200 / 111011.0 -1.2-1.3
2017-Nov-09 13:00N 46°30' W 084°24'0 0.0 190 / 101011.7 -1.4-1.5
2017-Nov-09 12:00N 46°30' W 084°24'0 0.0 200 / 91012.6 -1.6-1.7
2017-Nov-09 11:00N 46°30' W 084°24'0 0.0 180 / 61013.4 -1.1-1.3
2017-Nov-09 10:00N 46°30' W 084°24'0 0.0 210 / 91013.8 -0.3-1.3
2017-Nov-09 09:00N 46°30' W 084°24'0 0.0 250 / 151014.6 0.2-2.4
2017-Nov-09 08:00N 46°30' W 084°24'0 0.0 260 / 171015.3 1.2-4.4
2017-Nov-09 07:00N 46°30' W 084°24'0 0.0 230 / 111016.1 1.0-3.7
2017-Nov-09 06:00N 46°30' W 084°24'0 0.0 240 / 151016.5 1.7-4.5
2017-Nov-09 05:00N 46°30' W 084°24'0 0.0 280 / 111017.2 1.9-4.8
2017-Nov-09 04:00N 46°30' W 084°24'0 0.0 260 / 171018.2 1.5-5.0
2017-Nov-09 03:00N 46°30' W 084°24'0 0.0 230 / 141018.5 0.7-4.8
2017-Nov-09 01:00N 46°30' W 084°24'0 0.0 250 / 151019.3 1.0-4.1 6.1
2017-Nov-09 00:00N 46°30' W 084°24'0 0.0 260 / 151019.2 1.5-4.2 5.5
2017-Nov-08 23:00N 46°30' W 084°24'0 0.0 250 / 161019.1 1.9-4.8 5.4
2017-Nov-08 22:00N 46°30' W 084°24'4 4.1 250 / 81019.2 2.0-6.0 5.0
2017-Nov-08 21:00N 46°30' W 084°18'7 7.3 270 / 101019.2 2.6-5.7 4.7
2017-Nov-08 20:00N 46°24' W 084°12'7 7.3 280 / 121019.1 3.1-6.2 5.6
2017-Nov-08 19:00N 46°18' W 084°06'6 6.0 250 / 111019.5 3.3-5.0 5.8
2017-Nov-08 18:00N 46°12' W 084°06'1010.3 270 / 171019.0 3.2-3.9 6.2
2017-Nov-08 17:00N 46°06' W 083°54'1312.7 280 / 161020.1 2.9-2.4 4.8
2017-Nov-08 16:00N 45°54' W 083°48'7 7.3 260 / 211020.4 3.4-1.4 8.0
2017-Nov-08 15:00N 45°48' W 083°42'4 4.2 260 / 201021.1 3.1-1.7 6.7
2017-Nov-08 14:00N 45°48' W 083°36'4 4.2 240 / 161022.0 3.1-1.5 6.3
2017-Nov-08 13:00N 45°48' W 083°42'8 8.4 240 / 141022.0 3.6-1.0 6.6
2017-Nov-08 12:00N 45°48' W 083°54'1312.5 250 / 161022.2 5.6-2.6 7.4
2017-Nov-08 11:00N 45°48' W 084°12'710.8 260 / 151022.4 3.0-4.9 6.8
2017-Nov-08 10:23N 45°51' W 084°21'512.2
2017-Nov-08 10:00N 45°51' W 084°27'3203.9
2017-Nov-08 10:00N 45°48' W 084°30'5 9.9 280 / 151022.7 1.5-4.9 7.5
2017-Nov-08 09:30N 45°51' W 084°36'511.0
2017-Nov-08 09:00N 45°49' W 084°43'195.1
2017-Nov-08 09:00N 45°48' W 084°42'715.4 270 / 201023.1 3.0-5.2 6.3
2017-Nov-08 08:31N 45°50' W 084°52'612.3
2017-Nov-08 08:00N 45°51' W 085°01'3168.9
2017-Nov-08 08:00N 45°48' W 085°00'815.6 270 / 181023.6 3.0-5.1 5.9
2017-Nov-08 07:31N 45°51' W 085°10'612.1
2017-Nov-08 07:00N 45°52' W 085°18'2127.6
2017-Nov-08 07:00N 45°54' W 085°18'613.3 280 / 211024.0 1.3-7.4 7.1
2017-Nov-08 06:30N 45°53' W 085°27'611.7
2017-Nov-08 06:00N 45°53' W 085°36'179.2
2017-Nov-08 06:00N 45°54' W 085°36'613.3 280 / 211024.1 2.0-7.1 7.1
2017-Nov-08 05:30N 45°50' W 085°43'612.1
2017-Nov-08 05:00N 45°47' W 085°51'2145.0
2017-Nov-08 05:00N 45°48' W 085°48'817.0 270 / 171024.1 2.3-5.8 7.0
2017-Nov-08 04:30N 45°44' W 085°58'2 4.5
2017-Nov-08 04:00N 45°42' W 086°00'1312.7 250 / 131024.6 3.2-5.410.4
2017-Nov-08 03:00N 45°30' W 086°06'6 6.0 250 / 141025.4 2.9-6.1 8.7
2017-Nov-08 02:00N 45°24' W 086°06'1312.7 260 / 111026.0 2.4-6.5 8.4
2017-Nov-08 01:00N 45°12' W 086°12'6 6.0 270 / 101026.3 2.1-6.4 8.2
2017-Nov-08 00:00N 45°06' W 086°12'1312.7 280 / 91026.6 2.1-5.5 9.0
2017-Nov-07 23:00N 44°54' W 086°18'6 6.0 300 / 81026.6 2.1-5.7 9.2
2017-Nov-07 22:00N 44°48' W 086°18'7 7.4 300 / 91026.6 2.2-4.9 8.5
2017-Nov-07 21:00N 44°42' W 086°24'1212.0 310 / 111026.6 2.6-4.2 9.9
2017-Nov-07 20:00N 44°30' W 086°24'7 7.4 330 / 111026.6 2.9-3.8 8.7
2017-Nov-07 19:00N 44°24' W 086°30'6 6.0 340 / 111026.5 3.2-1.710.0
2017-Nov-07 18:00N 44°18' W 086°30'1312.7 350 / 111026.9 3.8-1.3 8.3
2017-Nov-07 17:00N 44°06' W 086°36'1312.8 350 / 121027.4 4.1-1.3 8.3
2017-Nov-07 16:00N 43°54' W 086°42'1312.8 360 / 111027.7 4.7-1.4 8.1
2017-Nov-07 15:00N 43°42' W 086°48'1212.0 010 / 121027.2 5.3-1.8 8.2
2017-Nov-07 14:00N 43°30' W 086°48'1212.0 360 / 141026.9 5.2-1.4 8.2
2017-Nov-07 13:00N 43°18' W 086°48'1212.0 010 / 141026.3 5.8 0.3 8.9
2017-Nov-07 12:00N 43°06' W 086°48'   050 / 101026.4 5.7 1.2 9.0

Dump ship's entire track history